createdAt,value
2018-08-04T00:00:17.604Z,101439.56
2018-08-04T00:03:08.582Z,101436.28
2018-08-04T00:05:37.470Z,101434.32
2018-08-04T00:08:06.366Z,101438.75
2018-08-04T00:10:59.726Z,101440.42
2018-08-04T00:13:28.622Z,101438.38
2018-08-04T00:15:59.580Z,101446.34
2018-08-04T00:18:45.680Z,101449.93
2018-08-04T00:21:14.544Z,101448.61
2018-08-04T00:23:43.468Z,101446.14
2018-08-04T00:26:12.421Z,101444.72
2018-08-04T00:28:41.331Z,101441.89
2018-08-04T00:31:10.188Z,101446.67
2018-08-04T00:33:39.041Z,101441.47
2018-08-04T00:36:13.578Z,101445.47
2018-08-04T00:38:42.460Z,101444.66
2018-08-04T00:41:11.355Z,101450.80
2018-08-04T00:43:40.331Z,101452.66
2018-08-04T00:46:09.200Z,101449.33
2018-08-04T00:48:38.046Z,101452.03
2018-08-04T00:51:06.997Z,101460.92
2018-08-04T00:53:35.972Z,101457.67
2018-08-04T00:56:04.856Z,101451.89
2018-08-04T00:58:33.720Z,101450.88
2018-08-04T01:01:06.007Z,101447.98
2018-08-04T01:03:35.032Z,101456.85
2018-08-04T01:06:03.927Z,101457.89
2018-08-04T01:08:40.011Z,101457.65
2018-08-04T01:11:08.953Z,101454.50
2018-08-04T01:13:37.846Z,101452.31
2018-08-04T01:16:07.787Z,101451.30
2018-08-04T01:18:36.646Z,101457.52
2018-08-04T01:21:05.502Z,101454.66
2018-08-04T01:23:34.387Z,101445.52
2018-08-04T01:26:06.489Z,101439.30
2018-08-04T01:28:35.426Z,101445.31
2018-08-04T01:31:04.416Z,101443.69
2018-08-04T01:33:33.420Z,101447.25
2018-08-04T01:36:02.368Z,101451.27
2018-08-04T01:38:42.793Z,101448.20
2018-08-04T01:41:11.659Z,101454.03
2018-08-04T01:43:41.571Z,101448.88
2018-08-04T01:46:10.436Z,101453.02
2018-08-04T01:51:34.956Z,101445.10
2018-08-04T01:54:03.832Z,101441.77
2018-08-04T01:56:32.834Z,101434.66
2018-08-04T01:59:08.325Z,101435.31
2018-08-04T02:01:37.289Z,101430.02
2018-08-04T02:04:06.555Z,101429.80
2018-08-04T02:06:39.035Z,101424.30
2018-08-04T02:09:14.900Z,101424.25
2018-08-04T02:11:47.356Z,101428.95
2018-08-04T02:14:30.488Z,101432.20
2018-08-04T02:17:03.970Z,101430.43
2018-08-04T02:19:35.045Z,101430.03
2018-08-04T02:24:57.705Z,101426.95
2018-08-04T02:27:32.341Z,101427.18
2018-08-04T02:30:06.957Z,101422.20
2018-08-04T02:32:41.448Z,101422.73
2018-08-04T02:35:24.175Z,101416.61
2018-08-04T02:37:58.336Z,101412.44
2018-08-04T02:40:27.188Z,101407.71
2018-08-04T02:43:14.820Z,101407.28
2018-08-04T02:46:01.842Z,101406.11
2018-08-04T02:48:48.449Z,101412.52
2018-08-04T02:51:24.950Z,101403.05
2018-08-04T02:53:57.516Z,101400.57
2018-08-04T02:56:26.488Z,101400.34
2018-08-04T02:58:58.824Z,101400.45
2018-08-04T03:01:29.911Z,101393.77
2018-08-04T03:04:08.163Z,101395.59
2018-08-04T03:06:37.046Z,101404.16
2018-08-04T03:09:08.765Z,101396.48
2018-08-04T03:11:42.164Z,101398.50
2018-08-04T03:14:13.116Z,101407.68
2018-08-04T03:16:48.078Z,101404.61
2018-08-04T03:19:21.712Z,101406.72
2018-08-04T03:21:51.127Z,101402.36
2018-08-04T03:24:21.178Z,101396.73
2018-08-04T03:26:57.983Z,101402.78
2018-08-04T03:29:37.801Z,101406.67
2018-08-04T03:32:07.480Z,101411.00
2018-08-04T03:34:56.818Z,101416.20
2018-08-04T03:37:26.188Z,101405.88
2018-08-04T03:39:55.407Z,101409.71
2018-08-04T03:42:24.793Z,101413.53
2018-08-04T03:44:54.148Z,101405.95
2018-08-04T03:47:23.445Z,101413.02
2018-08-04T03:49:52.701Z,101417.98
2018-08-04T03:52:21.993Z,101411.12
2018-08-04T03:54:51.647Z,101407.33
2018-08-04T03:57:20.637Z,101406.36
2018-08-04T03:59:49.621Z,101398.38
2018-08-04T04:02:18.659Z,101401.75
2018-08-04T04:04:47.536Z,101402.66
2018-08-04T04:07:16.410Z,101404.08
2018-08-04T04:09:45.357Z,101401.02
2018-08-04T04:12:14.238Z,101404.00
2018-08-04T04:14:43.082Z,101403.73
2018-08-04T04:17:22.060Z,101408.38
2018-08-04T04:19:50.951Z,101412.33
2018-08-04T04:22:19.844Z,101416.09
2018-08-04T04:24:48.716Z,101418.33
2018-08-04T04:27:17.600Z,101421.08
2018-08-04T04:29:46.514Z,101428.06
2018-08-04T04:32:15.433Z,101436.08
2018-08-04T04:34:44.306Z,101429.60
2018-08-04T04:37:16.745Z,101427.81
2018-08-04T04:39:45.690Z,101431.98
2018-08-04T04:42:14.707Z,101438.31
2018-08-04T04:44:43.561Z,101440.67
2018-08-04T04:47:12.441Z,101442.28
2018-08-04T04:49:41.338Z,101452.52
2018-08-04T04:52:10.224Z,101444.73
2018-08-04T04:54:47.200Z,101442.55
2018-08-04T04:57:16.068Z,101442.78
2018-08-04T04:59:45.009Z,101449.97
2018-08-04T05:02:13.868Z,101451.17
2018-08-04T05:04:42.725Z,101441.98
2018-08-04T05:07:11.739Z,101442.71
2018-08-04T05:09:40.650Z,101446.53
2018-08-04T05:12:20.901Z,101442.78
2018-08-04T05:14:49.784Z,101436.08
2018-08-04T05:17:25.780Z,101448.45
2018-08-04T05:19:54.700Z,101448.95
2018-08-04T05:22:23.567Z,101451.11
2018-08-04T05:24:52.426Z,101451.88
2018-08-04T05:27:25.686Z,101457.74
2018-08-04T05:29:54.570Z,101454.22
2018-08-04T05:32:23.454Z,101453.69
2018-08-04T05:34:52.320Z,101465.42
2018-08-04T05:37:31.118Z,101455.36
2018-08-04T05:39:59.973Z,101463.85
2018-08-04T05:42:28.847Z,101467.51
2018-08-04T05:44:57.746Z,101460.43
2018-08-04T05:47:26.606Z,101456.57
2018-08-04T05:49:55.488Z,101458.88
2018-08-04T05:52:24.356Z,101456.97
2018-08-04T05:54:53.322Z,101466.03
2018-08-04T05:57:22.228Z,101463.11
2018-08-04T05:59:51.135Z,101464.19
2018-08-04T06:02:19.981Z,101464.99
2018-08-04T06:04:48.900Z,101468.68
2018-08-04T06:07:17.749Z,101470.05
2018-08-04T06:09:46.722Z,101475.26
2018-08-04T06:12:15.640Z,101471.56
2018-08-04T06:14:44.626Z,101471.60
2018-08-04T06:17:13.477Z,101475.66
2018-08-04T06:19:42.360Z,101478.34
2018-08-04T06:22:11.292Z,101483.58
2018-08-04T06:24:43.310Z,101484.35
2018-08-04T06:27:12.185Z,101483.68
2018-08-04T06:29:41.041Z,101488.21
2018-08-04T06:32:10.175Z,101486.70
2018-08-04T06:34:39.054Z,101493.41
2018-08-04T06:37:07.898Z,101490.05
2018-08-04T06:39:36.769Z,101496.80
2018-08-04T06:42:11.280Z,101492.84
2018-08-04T06:44:40.144Z,101503.71
2018-08-04T06:47:09.038Z,101504.69
2018-08-04T06:49:37.901Z,101506.20
2018-08-04T06:52:06.773Z,101509.85
2018-08-04T06:54:35.644Z,101493.84
2018-08-04T06:57:04.524Z,101491.09
2018-08-04T06:59:33.407Z,101488.01
2018-08-04T07:02:02.274Z,101488.84
2018-08-04T07:04:31.500Z,101490.45
2018-08-04T07:07:00.430Z,101496.72
2018-08-04T07:09:29.293Z,101495.11
2018-08-04T07:11:58.227Z,101495.48
2018-08-04T07:14:27.111Z,101491.25
2018-08-04T07:16:56.083Z,101487.92
2018-08-04T07:19:28.213Z,101498.67
2018-08-04T07:21:57.114Z,101492.73
2018-08-04T07:24:25.976Z,101490.34
2018-08-04T07:26:58.756Z,101488.05
2018-08-04T07:29:27.676Z,101495.58
2018-08-04T07:31:56.567Z,101498.95
2018-08-04T07:34:42.525Z,101500.96
2018-08-04T07:37:11.396Z,101498.25
2018-08-04T07:39:40.298Z,101505.94
2018-08-04T07:42:21.113Z,101508.84
2018-08-04T07:44:50.316Z,101504.56
2018-08-04T07:47:19.187Z,101513.73
2018-08-04T07:49:48.127Z,101518.09
2018-08-04T07:52:16.981Z,101518.89
2018-08-04T07:54:46.607Z,101522.78
2018-08-04T07:57:15.466Z,101524.57
2018-08-04T07:59:44.451Z,101518.73
2018-08-04T08:02:13.666Z,101523.44
2018-08-04T08:04:42.530Z,101520.25
2018-08-04T08:07:11.480Z,101519.06
2018-08-04T08:09:40.348Z,101518.74
2018-08-04T08:12:09.324Z,101516.44
2018-08-04T08:14:38.181Z,101517.23
2018-08-04T08:17:07.315Z,101523.09
2018-08-04T08:19:36.191Z,101517.40
2018-08-04T08:22:05.088Z,101517.66
2018-08-04T08:24:33.974Z,101522.95
2018-08-04T08:27:16.688Z,101521.73
2018-08-04T08:29:45.642Z,101521.80
2018-08-04T08:32:14.515Z,101520.12
2018-08-04T08:37:39.481Z,101521.33
2018-08-04T08:40:09.010Z,101520.86
2018-08-04T08:42:41.934Z,101520.38
2018-08-04T08:45:11.161Z,101519.27
2018-08-04T08:47:40.029Z,101520.69
2018-08-04T08:50:11.069Z,101522.39
2018-08-04T08:52:40.212Z,101533.38
2018-08-04T08:55:09.743Z,101530.22
2018-08-04T08:57:38.643Z,101531.80
2018-08-04T09:00:09.349Z,101531.41
2018-08-04T09:02:43.060Z,101531.61
2018-08-04T09:05:11.944Z,101529.88
2018-08-04T09:07:40.827Z,101528.84
2018-08-04T09:10:11.893Z,101530.82
2018-08-04T09:12:41.348Z,101530.20
2018-08-04T09:15:10.577Z,101536.41
2018-08-04T09:17:39.485Z,101534.92
2018-08-04T09:20:13.578Z,101534.72
2018-08-04T09:22:42.483Z,101531.77
2018-08-04T09:25:11.361Z,101530.59
2018-08-04T09:27:46.756Z,101529.34
2018-08-04T09:30:15.621Z,101524.06
2018-08-04T09:32:45.009Z,101527.02
2018-08-04T09:35:14.891Z,101531.81
2018-08-04T09:37:43.882Z,101531.30
2018-08-04T09:40:19.780Z,101530.20
2018-08-04T09:42:48.670Z,101528.07
2018-08-04T09:45:17.553Z,101531.02
2018-08-04T09:47:48.003Z,101530.70
2018-08-04T09:50:16.966Z,101529.98
2018-08-04T09:52:45.915Z,101532.27
2018-08-04T09:55:14.815Z,101535.77
2018-08-04T09:57:43.692Z,101531.09
2018-08-04T10:00:18.685Z,101535.34
2018-08-04T10:02:47.557Z,101533.66
2018-08-04T10:05:16.467Z,101537.39
2018-08-04T10:07:45.341Z,101537.80
2018-08-04T10:10:14.234Z,101533.26
2018-08-04T10:12:43.114Z,101537.66
2018-08-04T10:15:12.232Z,101534.02
2018-08-04T10:17:41.301Z,101536.03
2018-08-04T10:20:11.536Z,101528.09
2018-08-04T10:22:40.378Z,101520.52
2018-08-04T10:25:09.501Z,101527.06
2018-08-04T10:27:38.411Z,101525.61
2018-08-04T10:30:18.709Z,101525.66
2018-08-04T10:32:47.636Z,101527.63
2018-08-04T10:35:17.584Z,101523.45
2018-08-04T10:37:46.453Z,101520.50
2018-08-04T10:40:15.316Z,101516.59
2018-08-04T10:42:44.209Z,101518.38
2018-08-04T10:45:13.093Z,101508.80
2018-08-04T10:47:53.644Z,101511.24
2018-08-04T10:50:22.520Z,101517.66
2018-08-04T10:52:51.413Z,101515.95
2018-08-04T10:55:36.655Z,101511.08
2018-08-04T10:58:05.539Z,101503.73
2018-08-04T11:00:34.894Z,101504.80
2018-08-04T11:03:03.774Z,101499.91
2018-08-04T11:05:41.184Z,101502.86
2018-08-04T11:08:10.070Z,101505.80
2018-08-04T11:10:39.958Z,101504.31
2018-08-04T11:13:08.948Z,101499.57
2018-08-04T11:15:37.812Z,101490.38
2018-08-04T11:18:06.877Z,101493.47
2018-08-04T11:20:35.675Z,101498.59
2018-08-04T11:23:04.574Z,101488.56
2018-08-04T11:25:33.474Z,101490.81
2018-08-04T11:28:02.334Z,101486.45
2018-08-04T11:30:31.247Z,101493.86
2018-08-04T11:33:02.251Z,101498.09
2018-08-04T11:35:31.122Z,101492.31
2018-08-04T11:37:59.984Z,101493.05
2018-08-04T11:40:28.886Z,101499.32
2018-08-04T11:46:09.760Z,101495.28
2018-08-04T11:48:38.628Z,101498.55
2018-08-04T11:51:07.515Z,101492.28
2018-08-04T11:53:36.417Z,101486.27
2018-08-04T11:56:05.544Z,101486.77
2018-08-04T11:58:34.427Z,101485.22
2018-08-04T12:01:03.312Z,101488.98
2018-08-04T12:03:32.207Z,101484.72
2018-08-04T12:06:15.834Z,101481.20
2018-08-04T12:08:44.706Z,101479.67
2018-08-04T12:11:13.658Z,101474.86
2018-08-04T12:13:42.440Z,101468.30
2018-08-04T12:16:11.548Z,101469.14
2018-08-04T12:18:40.450Z,101472.58
2018-08-04T12:21:09.330Z,101466.71
2018-08-04T12:23:40.244Z,101463.34
2018-08-04T12:26:09.135Z,101456.33
2018-08-04T12:28:38.017Z,101455.84
2018-08-04T12:31:06.911Z,101452.18
2018-08-04T12:33:37.998Z,101456.83
2018-08-04T12:36:06.850Z,101454.08
2018-08-04T12:38:35.714Z,101454.42
2018-08-04T12:41:04.652Z,101454.80
2018-08-04T12:43:33.845Z,101457.00
2018-08-04T12:46:03.918Z,101448.80
2018-08-04T12:48:33.452Z,101460.81
2018-08-04T12:51:02.806Z,101451.27
2018-08-04T12:56:32.443Z,101446.84
2018-08-04T13:02:05.228Z,101443.13
2018-08-04T13:04:44.024Z,101446.98
2018-08-04T13:07:12.912Z,101440.37
2018-08-04T13:09:48.890Z,101439.16
2018-08-04T13:12:17.756Z,101440.81
2018-08-04T13:14:46.626Z,101441.72
2018-08-04T13:17:15.481Z,101435.67
2018-08-04T13:19:44.421Z,101434.92
2018-08-04T13:22:13.279Z,101441.05
2018-08-04T13:24:42.173Z,101433.28
2018-08-04T13:27:11.024Z,101433.53
2018-08-04T13:29:39.929Z,101420.99
2018-08-04T13:32:09.691Z,101428.19
2018-08-04T13:34:42.372Z,101420.14
2018-08-04T13:37:11.299Z,101422.64
2018-08-04T13:39:40.160Z,101426.61
2018-08-04T13:42:09.215Z,101411.73
2018-08-04T13:44:38.312Z,101415.84
2018-08-04T13:47:07.216Z,101413.28
2018-08-04T13:49:36.092Z,101412.46
2018-08-04T13:52:04.979Z,101418.95
2018-08-04T13:54:33.860Z,101420.58
2018-08-04T13:57:10.231Z,101421.02
2018-08-04T13:59:39.122Z,101411.17
2018-08-04T14:02:07.991Z,101414.45
2018-08-04T14:04:36.989Z,101410.47
2018-08-04T14:07:06.036Z,101418.48
2018-08-04T14:09:34.908Z,101417.78
2018-08-04T14:12:03.780Z,101408.83
2018-08-04T14:14:32.632Z,101415.00
2018-08-04T14:17:01.538Z,101414.09
2018-08-04T14:19:30.401Z,101408.87
2018-08-04T14:21:59.264Z,101417.29
2018-08-04T14:24:28.159Z,101409.87
2018-08-04T14:26:57.181Z,101403.72
2018-08-04T14:29:26.042Z,101408.50
2018-08-04T14:31:54.932Z,101407.19
2018-08-04T14:34:23.834Z,101409.79
2018-08-04T14:36:56.841Z,101406.20
2018-08-04T14:39:25.706Z,101406.40
2018-08-04T14:41:54.564Z,101403.42
2018-08-04T14:44:31.114Z,101400.16
2018-08-04T14:47:00.046Z,101400.39
2018-08-04T14:49:28.947Z,101398.26
2018-08-04T14:52:01.541Z,101392.22
2018-08-04T14:54:30.434Z,101404.98
2018-08-04T14:57:15.889Z,101402.33
2018-08-04T14:59:44.813Z,101391.23
2018-08-04T15:02:13.678Z,101398.25
2018-08-04T15:04:42.618Z,101391.07
2018-08-04T15:07:12.530Z,101391.08
2018-08-04T15:09:41.395Z,101389.22
2018-08-04T15:12:10.282Z,101394.58
2018-08-04T15:14:39.137Z,101396.19
2018-08-04T15:17:14.527Z,101392.81
2018-08-04T15:19:43.448Z,101387.70
2018-08-04T15:22:12.315Z,101388.87
2018-08-04T15:24:41.191Z,101383.59
2018-08-04T15:27:10.064Z,101388.63
2018-08-04T15:29:38.955Z,101386.41
2018-08-04T15:32:07.834Z,101387.23
2018-08-04T15:34:36.689Z,101379.89
2018-08-04T15:37:05.590Z,101383.17
2018-08-04T15:39:34.524Z,101385.50
2018-08-04T15:42:03.388Z,101396.17
2018-08-04T15:44:34.812Z,101387.01
2018-08-04T15:47:03.731Z,101393.28
2018-08-04T15:49:32.565Z,101396.63
2018-08-04T15:52:06.370Z,101391.97
2018-08-04T15:54:35.236Z,101391.98
2018-08-04T15:57:04.112Z,101389.13
2018-08-04T15:59:32.958Z,101389.95
2018-08-04T16:02:01.821Z,101396.03
2018-08-04T16:04:32.821Z,101393.16
2018-08-04T16:07:01.709Z,101395.73
2018-08-04T16:09:30.576Z,101390.41
2018-08-04T16:11:59.455Z,101395.11
2018-08-04T16:14:29.459Z,101396.34
2018-08-04T16:16:58.316Z,101397.62
2018-08-04T16:19:27.174Z,101389.28
2018-08-04T16:21:56.060Z,101400.30
2018-08-04T16:24:24.954Z,101395.06
2018-08-04T16:26:53.820Z,101397.81
2018-08-04T16:29:22.700Z,101398.48
2018-08-04T16:32:01.649Z,101402.34
2018-08-04T16:34:30.584Z,101404.42
2018-08-04T16:36:59.433Z,101404.14
2018-08-04T16:39:29.152Z,101402.81
2018-08-04T16:41:58.100Z,101403.06
2018-08-04T16:44:26.940Z,101401.08
2018-08-04T16:46:58.366Z,101408.17
2018-08-04T16:49:27.239Z,101414.48
2018-08-04T16:51:56.096Z,101411.25
2018-08-04T16:54:28.904Z,101415.63
2018-08-04T16:56:57.876Z,101418.51
2018-08-04T16:59:26.800Z,101425.81
2018-08-04T17:01:55.672Z,101415.39
2018-08-04T17:04:24.549Z,101427.93
2018-08-04T17:06:53.418Z,101431.43
2018-08-04T17:09:27.164Z,101427.36
2018-08-04T17:11:56.052Z,101429.80
2018-08-04T17:14:24.930Z,101429.83
2018-08-04T17:16:53.816Z,101430.02
2018-08-04T17:19:38.920Z,101430.79
2018-08-04T17:22:07.849Z,101435.66
2018-08-04T17:24:36.692Z,101438.62
2018-08-04T17:27:06.608Z,101446.73
2018-08-04T17:29:35.488Z,101446.75
2018-08-04T17:32:04.377Z,101452.56
2018-08-04T17:34:33.270Z,101443.68
2018-08-04T17:37:06.424Z,101451.13
2018-08-04T17:39:35.330Z,101454.91
2018-08-04T17:42:04.222Z,101461.50
2018-08-04T17:44:33.222Z,101459.71
2018-08-04T17:47:02.171Z,101458.91
2018-08-04T17:49:31.035Z,101458.88
2018-08-04T17:51:59.916Z,101466.56
2018-08-04T17:54:28.836Z,101463.71
2018-08-04T17:56:58.410Z,101466.14
2018-08-04T17:59:27.287Z,101470.00
2018-08-04T18:01:56.164Z,101482.47
2018-08-04T18:07:23.131Z,101477.72
2018-08-04T18:09:52.182Z,101482.03
2018-08-04T18:12:23.142Z,101481.72
2018-08-04T18:14:52.017Z,101485.63
2018-08-04T18:17:20.879Z,101485.17
2018-08-04T18:19:53.769Z,101488.34
2018-08-04T18:22:22.643Z,101492.32
2018-08-04T18:24:51.563Z,101497.77
2018-08-04T18:27:20.448Z,101489.91
2018-08-04T18:29:49.552Z,101498.44
2018-08-04T18:32:18.433Z,101496.98
2018-08-04T18:34:47.326Z,101499.34
2018-08-04T18:37:16.184Z,101510.85
2018-08-04T18:39:45.059Z,101507.90
2018-08-04T18:42:13.950Z,101512.71
2018-08-04T18:44:42.878Z,101518.05
2018-08-04T18:47:11.753Z,101518.80
2018-08-04T18:49:40.613Z,101519.38
2018-08-04T18:52:09.510Z,101524.24
2018-08-04T18:54:38.411Z,101520.83
2018-08-04T18:57:07.311Z,101521.95
2018-08-04T18:59:36.621Z,101530.52
2018-08-04T19:02:05.504Z,101539.41
2018-08-04T19:04:34.558Z,101533.36
2018-08-04T19:07:03.413Z,101545.80
2018-08-04T19:09:32.415Z,101542.84
2018-08-04T19:12:01.276Z,101552.83
2018-08-04T19:14:30.166Z,101560.40
2018-08-04T19:17:04.596Z,101559.45
2018-08-04T19:19:33.476Z,101562.30
2018-08-04T19:22:02.354Z,101561.17
2018-08-04T19:24:32.338Z,101556.23
2018-08-04T19:27:01.193Z,101573.27
2018-08-04T19:29:30.073Z,101580.24
2018-08-04T19:31:59.015Z,101580.47
2018-08-04T19:34:27.920Z,101582.08
2018-08-04T19:36:56.883Z,101592.33
2018-08-04T19:39:25.758Z,101599.35
2018-08-04T19:45:11.241Z,101600.86
2018-08-04T19:47:40.128Z,101607.82
2018-08-04T19:53:04.844Z,101612.00
2018-08-04T19:55:33.790Z,101616.00
2018-08-04T19:58:02.613Z,101609.89
2018-08-04T20:00:31.528Z,101620.29
2018-08-04T20:03:00.404Z,101622.02
2018-08-04T20:05:39.974Z,101622.41
2018-08-04T20:08:08.830Z,101631.97
2018-08-04T20:10:37.684Z,101627.58
2018-08-04T20:13:06.643Z,101629.31
2018-08-04T20:18:47.512Z,101637.90
2018-08-04T20:21:16.442Z,101632.88
2018-08-04T20:23:45.338Z,101632.42
2018-08-04T20:26:14.200Z,101641.47
2018-08-04T20:28:43.102Z,101642.56
2018-08-04T20:31:14.017Z,101643.97
2018-08-04T20:33:43.034Z,101645.77
2018-08-04T20:36:12.355Z,101641.49
2018-08-04T20:38:41.214Z,101644.16
2018-08-04T20:41:10.101Z,101646.11
2018-08-04T20:43:38.979Z,101647.05
2018-08-04T20:46:07.848Z,101653.02
2018-08-04T20:48:36.739Z,101649.65
2018-08-04T20:51:05.625Z,101650.95
2018-08-04T20:53:34.510Z,101660.67
2018-08-04T20:56:03.369Z,101657.12
2018-08-04T20:58:32.237Z,101661.79
2018-08-04T21:01:12.596Z,101658.88
2018-08-04T21:03:41.466Z,101662.97
2018-08-04T21:06:11.399Z,101664.73
2018-08-04T21:08:40.252Z,101658.30
2018-08-04T21:11:09.147Z,101656.39
2018-08-04T21:13:38.022Z,101660.83
2018-08-04T21:16:07.004Z,101657.48
2018-08-04T21:18:35.858Z,101656.91
2018-08-04T21:21:10.923Z,101655.70
2018-08-04T21:23:39.813Z,101652.08
2018-08-04T21:26:08.692Z,101655.77
2018-08-04T21:28:37.584Z,101658.39
2018-08-04T21:31:06.464Z,101652.81
2018-08-04T21:33:35.370Z,101659.33
2018-08-04T21:36:04.236Z,101666.85
2018-08-04T21:38:33.139Z,101658.62
2018-08-04T21:41:02.038Z,101663.20
2018-08-04T21:43:30.947Z,101677.30
2018-08-04T21:45:59.936Z,101675.80
2018-08-04T21:48:28.893Z,101672.48
2018-08-04T21:50:57.784Z,101672.63
2018-08-04T21:53:26.674Z,101674.13
2018-08-04T21:55:55.608Z,101675.66
2018-08-04T21:58:24.417Z,101672.18
2018-08-04T22:00:58.738Z,101668.30
2018-08-04T22:03:27.619Z,101674.17
2018-08-04T22:05:56.502Z,101674.96
2018-08-04T22:08:38.718Z,101679.57
2018-08-04T22:11:07.643Z,101681.70
2018-08-04T22:13:36.488Z,101684.29
2018-08-04T22:16:05.507Z,101684.17
2018-08-04T22:18:34.368Z,101682.56
2018-08-04T22:21:03.296Z,101684.02
2018-08-04T22:23:32.178Z,101689.86
2018-08-04T22:26:09.119Z,101688.20
2018-08-04T22:28:38.090Z,101685.73
2018-08-04T22:31:06.968Z,101696.23
2018-08-04T22:33:35.862Z,101695.41
2018-08-04T22:36:04.809Z,101693.88
2018-08-04T22:38:33.695Z,101695.08
2018-08-04T22:41:02.603Z,101697.75
2018-08-04T22:43:31.455Z,101696.37
2018-08-04T22:46:06.336Z,101697.53
2018-08-04T22:48:35.873Z,101698.92
2018-08-04T22:51:05.009Z,101703.12
2018-08-04T22:53:34.170Z,101698.77
2018-08-04T22:56:03.022Z,101706.42
2018-08-04T22:58:31.919Z,101708.42
2018-08-04T23:01:00.807Z,101710.48
2018-08-04T23:03:29.722Z,101706.84
2018-08-04T23:05:58.728Z,101710.28
2018-08-04T23:08:27.595Z,101715.97
2018-08-04T23:10:56.682Z,101716.80
2018-08-04T23:13:25.560Z,101718.15
2018-08-04T23:15:54.446Z,101716.22
2018-08-04T23:18:23.328Z,101724.31
2018-08-04T23:20:52.184Z,101723.74
2018-08-04T23:23:21.068Z,101726.89
2018-08-04T23:25:49.917Z,101723.34
2018-08-04T23:28:18.800Z,101725.30
2018-08-04T23:30:47.668Z,101735.77
2018-08-04T23:33:16.560Z,101736.83
2018-08-04T23:35:52.789Z,101728.73
2018-08-04T23:38:21.669Z,101732.56
2018-08-04T23:40:50.541Z,101738.06
2018-08-04T23:43:19.478Z,101733.97
2018-08-04T23:45:48.371Z,101743.45
2018-08-04T23:48:17.248Z,101738.80
2018-08-04T23:50:46.154Z,101744.97
2018-08-04T23:53:15.032Z,101750.12
2018-08-04T23:55:43.928Z,101748.78
2018-08-04T23:58:13.032Z,101754.30
